Time;durP1;ratioP1;P1;durP2;ratioP2;P2;SDS_P1;SDS_P2;PMS_P1;PMS_P2;Temp;Humidity;BMP_temperature;BMP_pressure;BME280_temperature;BME280_humidity;BME280_pressure;Samples;Min_cycle;Max_cycle;Signal;HPM_P1;HPM_P2
2022/05/08 00:01:49;;;;;;;;;;;;;;;17.01;40.69;101544.69;5076517;28;860;-56
2022/05/08 00:04:14;;;;;;;;;;;;;;;17.31;42.78;101552.44;5076288;28;857;-56
2022/05/08 00:06:40;;;;;;;;;;;;;;;17.62;45.15;101549.97;5075579;28;873;-55
2022/05/08 00:09:05;;;;;;;;;;;;;;;17.98;46.50;101550.28;5075534;28;1977;-55
2022/05/08 00:11:31;;;;;;;;;;;;;;;18.23;47.43;101548.78;5078436;28;878;-56
2022/05/08 00:13:56;;;;;;;;;;;;;;;18.42;47.88;101550.00;5079700;28;985;-56
2022/05/08 00:16:22;;;;;;;;;;;;;;;18.67;48.13;101547.66;5079762;28;857;-56
2022/05/08 00:18:47;;;;;;;;;;;;;;;18.67;48.12;101542.13;5079722;28;934;-56
2022/05/08 00:21:13;;;;;;;;;;;;;;;18.42;47.35;101552.75;5079569;28;910;-55
2022/05/08 00:23:38;;;;;;;;;;;;;;;18.17;46.17;101553.41;5079126;28;1156;-56
2022/05/08 00:26:07;;;;;;;;;;;;;;;17.95;44.19;101559.06;5079774;28;837;-56
2022/05/08 00:28:33;;;;;;;;;;;;;;;17.61;42.75;101556.53;5079205;28;1976;-56
2022/05/08 00:30:58;;;;;;;;;;;;;;;17.39;41.88;101556.59;5079230;28;878;-56
2022/05/08 00:33:24;;;;;;;;;;;;;;;17.28;41.17;101552.94;5079362;28;775;-55
2022/05/08 00:35:49;;;;;;;;;;;;;;;17.11;40.69;101547.56;5078736;28;938;-55
2022/05/08 00:38:14;;;;;;;;;;;;;;;17.05;40.25;101541.16;5078961;28;1005;-55
2022/05/08 00:40:40;;;;;;;;;;;;;;;16.93;39.92;101535.81;5079621;28;818;-55
2022/05/08 00:43:25;;;;;;;;;;;;;;;16.87;39.75;101530.47;5079420;28;913;-55
2022/05/08 00:45:50;;;;;;;;;;;;;;;16.97;40.91;101527.91;5079413;28;746;-56
2022/05/08 00:48:15;;;;;;;;;;;;;;;17.15;41.79;101539.59;5082796;28;819;-56
2022/05/08 00:50:41;;;;;;;;;;;;;;;17.32;43.25;101539.50;5083675;28;1973;-55
2022/05/08 00:53:06;;;;;;;;;;;;;;;17.46;44.47;101535.25;5079176;28;857;-55
2022/05/08 00:55:32;;;;;;;;;;;;;;;17.59;44.97;101537.56;5079024;28;759;-55
2022/05/08 00:57:57;;;;;;;;;;;;;;;17.72;45.62;101544.53;5079113;28;1570;-55
2022/05/08 01:00:23;;;;;;;;;;;;;;;17.75;45.96;101537.69;5078807;28;777;-56
2022/05/08 01:02:50;;;;;;;;;;;;;;;17.86;45.79;101538.59;5077311;28;1106;-55
2022/05/08 01:05:16;;;;;;;;;;;;;;;17.92;46.15;101537.56;5078727;28;953;-55
2022/05/08 01:07:42;;;;;;;;;;;;;;;17.95;45.99;101537.06;5078617;28;860;-55
2022/05/08 01:10:09;;;;;;;;;;;;;;;18.00;46.09;101530.75;5079036;28;2054;-55
2022/05/08 01:12:34;;;;;;;;;;;;;;;18.08;46.17;101525.56;5077750;28;833;-55
2022/05/08 01:15:18;;;;;;;;;;;;;;;18.08;46.59;101528.31;5077292;28;1012;-55
2022/05/08 01:17:44;;;;;;;;;;;;;;;18.18;46.45;101529.50;5078431;28;801;-55
2022/05/08 01:20:11;;;;;;;;;;;;;;;18.22;46.52;101528.69;5079400;28;847;-55
2022/05/08 01:22:36;;;;;;;;;;;;;;;18.31;46.94;101534.50;5078103;28;802;-56
2022/05/08 01:25:02;;;;;;;;;;;;;;;18.31;46.81;101531.75;5076538;28;1116;-56
2022/05/08 01:27:27;;;;;;;;;;;;;;;18.33;46.49;101537.00;5077877;28;1048;-55
2022/05/08 01:29:53;;;;;;;;;;;;;;;18.15;45.70;101541.03;5078472;28;1983;-56
2022/05/08 01:32:19;;;;;;;;;;;;;;;17.93;44.41;101536.47;5078669;28;835;-55
2022/05/08 01:34:44;;;;;;;;;;;;;;;17.65;43.14;101537.63;5078032;28;870;-55
2022/05/08 01:37:10;;;;;;;;;;;;;;;17.43;41.68;101536.59;5078280;28;814;-55
2022/05/08 01:39:35;;;;;;;;;;;;;;;17.25;41.14;101535.06;5081012;28;844;-56
2022/05/08 01:42:04;;;;;;;;;;;;;;;17.13;40.19;101519.81;5078209;28;762;-55
2022/05/08 01:44:30;;;;;;;;;;;;;;;17.07;40.16;101528.00;5078315;28;793;-55
2022/05/08 01:49:40;;;;;;;;;;;;;;;17.20;41.78;101523.19;5077758;28;1914;-55
2022/05/08 01:52:06;;;;;;;;;;;;;;;17.47;44.16;101525.91;5077248;28;796;-56
2022/05/08 01:54:31;;;;;;;;;;;;;;;17.86;45.74;101527.59;5077681;28;905;-55
2022/05/08 01:56:56;;;;;;;;;;;;;;;18.20;46.67;101533.66;5077542;28;870;-56
2022/05/08 01:59:22;;;;;;;;;;;;;;;18.41;47.07;101526.31;5077991;28;841;-55
2022/05/08 02:01:47;;;;;;;;;;;;;;;18.59;47.44;101526.94;5076081;28;1118;-55
2022/05/08 02:04:15;;;;;;;;;;;;;;;18.76;47.77;101526.72;5080166;28;889;-55
2022/05/08 02:06:41;;;;;;;;;;;;;;;18.73;47.87;101521.75;5078325;28;717;-56
2022/05/08 02:09:06;;;;;;;;;;;;;;;18.54;47.29;101525.00;5077567;28;1917;-56
2022/05/08 02:11:32;;;;;;;;;;;;;;;18.21;46.21;101529.78;5077301;28;881;-55
2022/05/08 02:13:58;;;;;;;;;;;;;;;17.99;44.63;101529.09;5077372;28;1004;-55
2022/05/08 02:16:24;;;;;;;;;;;;;;;17.72;43.17;101530.78;5077175;28;770;-55
2022/05/08 02:18:50;;;;;;;;;;;;;;;17.49;41.93;101529.22;5075932;28;1078;-55
2022/05/08 02:21:15;;;;;;;;;;;;;;;17.31;40.70;101527.69;5077777;28;736;-55
2022/05/08 02:23:40;;;;;;;;;;;;;;;17.18;40.04;101519.84;5077366;28;809;-55
2022/05/08 02:26:06;;;;;;;;;;;;;;;17.03;39.62;101526.84;5077272;28;877;-55
2022/05/08 02:28:31;;;;;;;;;;;;;;;16.88;39.17;101518.41;5077871;28;1921;-55
2022/05/08 02:30:57;;;;;;;;;;;;;;;16.97;39.61;101514.16;5078116;28;821;-55
2022/05/08 02:33:22;;;;;;;;;;;;;;;17.09;40.62;101511.25;5081491;28;1469;-56
2022/05/08 02:35:48;;;;;;;;;;;;;;;17.23;42.04;101525.41;5091057;28;823;-56
2022/05/08 02:38:13;;;;;;;;;;;;;;;17.36;43.18;101529.66;5096329;28;1008;-56
2022/05/08 02:40:39;;;;;;;;;;;;;;;17.48;43.71;101526.75;5096783;28;847;-56
2022/05/08 02:43:04;;;;;;;;;;;;;;;17.61;44.24;101529.03;5080162;28;812;-56
2022/05/08 02:45:29;;;;;;;;;;;;;;;17.63;44.93;101524.13;5077005;28;885;-55
2022/05/08 02:47:56;;;;;;;;;;;;;;;17.71;44.93;101531.91;5076829;28;834;-55
2022/05/08 02:50:22;;;;;;;;;;;;;;;17.72;45.11;101533.53;5076632;28;1906;-55
2022/05/08 02:52:47;;;;;;;;;;;;;;;17.74;45.36;101531.38;5076698;28;817;-56
2022/05/08 03:00:41;;;;;;;;;;;;;;;17.89;45.13;101538.91;5090097;28;778;-56
2022/05/08 03:03:06;;;;;;;;;;;;;;;17.86;45.55;101530.34;5096646;28;845;-56
2022/05/08 03:05:32;;;;;;;;;;;;;;;17.89;45.34;101538.06;5094485;28;1394;-56
2022/05/08 03:07:58;;;;;;;;;;;;;;;17.85;45.43;101536.94;5082874;28;1146;-55
2022/05/08 03:10:23;;;;;;;;;;;;;;;17.87;45.30;101540.25;5076615;28;1918;-56
2022/05/08 03:12:49;;;;;;;;;;;;;;;18.00;45.14;101544.50;5076425;28;1164;-56
2022/05/08 03:15:14;;;;;;;;;;;;;;;17.99;45.50;101543.66;5076945;28;906;-56
2022/05/08 03:17:39;;;;;;;;;;;;;;;17.98;45.30;101542.03;5076461;28;849;-56
2022/05/08 03:20:05;;;;;;;;;;;;;;;17.98;45.23;101542.03;5077577;28;895;-55
2022/05/08 03:22:31;;;;;;;;;;;;;;;18.04;45.32;101540.13;5077043;28;900;-55
2022/05/08 03:24:56;;;;;;;;;;;;;;;18.07;45.33;101537.66;5076365;28;757;-55
2022/05/08 03:27:21;;;;;;;;;;;;;;;18.10;45.35;101539.06;5075434;28;1345;-55
2022/05/08 03:29:47;;;;;;;;;;;;;;;18.09;45.32;101532.75;5076759;28;1917;-54
2022/05/08 03:32:12;;;;;;;;;;;;;;;18.11;45.34;101541.56;5077181;28;836;-53
2022/05/08 03:34:38;;;;;;;;;;;;;;;18.09;45.61;101538.25;5079727;28;877;-53
2022/05/08 03:37:04;;;;;;;;;;;;;;;18.11;45.41;101538.78;5076270;28;1068;-53
2022/05/08 03:39:29;;;;;;;;;;;;;;;18.16;45.42;101542.69;5076419;28;973;-57
2022/05/08 03:41:55;;;;;;;;;;;;;;;18.10;45.22;101550.06;5076197;28;822;-54
2022/05/08 03:44:20;;;;;;;;;;;;;;;18.10;45.25;101545.41;5076842;28;778;-53
2022/05/08 03:46:45;;;;;;;;;;;;;;;18.05;44.89;101552.81;5080855;28;828;-54
2022/05/08 03:49:11;;;;;;;;;;;;;;;18.04;44.89;101553.91;5081874;28;1984;-54
2022/05/08 03:51:36;;;;;;;;;;;;;;;17.97;45.21;101551.38;5080027;28;1349;-54
2022/05/08 03:54:02;;;;;;;;;;;;;;;18.04;44.85;101557.47;5091516;28;858;-51
2022/05/08 03:56:28;;;;;;;;;;;;;;;18.01;44.73;101557.19;5082272;28;1419;-56
2022/05/08 03:58:53;;;;;;;;;;;;;;;17.99;44.77;101554.66;5084175;28;821;-56
2022/05/08 04:01:18;;;;;;;;;;;;;;;17.98;44.71;101558.53;5082997;28;1424;-57
2022/05/08 04:03:44;;;;;;;;;;;;;;;17.99;44.50;101554.66;5082724;28;1032;-57
2022/05/08 04:06:09;;;;;;;;;;;;;;;17.94;44.60;101551.91;5086491;28;923;-57
2022/05/08 04:08:35;;;;;;;;;;;;;;;17.98;44.64;101558.53;5087630;28;1905;-56
2022/05/08 04:11:01;;;;;;;;;;;;;;;17.99;44.86;101562.94;5089994;28;1363;-57
2022/05/08 04:13:26;;;;;;;;;;;;;;;17.97;44.65;101570.63;5080923;28;1000;-57
2022/05/08 04:18:35;;;;;;;;;;;;;;;17.99;44.98;101565.69;5088287;28;1094;-57
2022/05/08 04:21:01;;;;;;;;;;;;;;;17.96;45.00;101560.72;5082884;28;1043;-57
2022/05/08 04:26:45;;;;;;;;;;;;;;;17.93;44.84;101555.75;5171979;24;7486;-58
2022/05/08 04:29:10;;;;;;;;;;;;;;;17.87;44.79;101568.59;4812446;29;1920;-58
2022/05/08 04:31:35;;;;;;;;;;;;;;;17.81;44.67;101574.31;4809614;29;930;-57
2022/05/08 04:34:01;;;;;;;;;;;;;;;17.88;44.40;101569.41;4812361;29;832;-56
2022/05/08 04:36:27;;;;;;;;;;;;;;;17.84;44.46;101568.28;4811501;29;815;-56
2022/05/08 04:38:52;;;;;;;;;;;;;;;17.84;44.27;101571.88;4811574;29;800;-61
2022/05/08 04:41:18;;;;;;;;;;;;;;;17.83;44.35;101569.41;4811886;29;786;-65
2022/05/08 04:43:45;;;;;;;;;;;;;;;17.77;44.43;101579.53;4810704;29;883;-68
2022/05/08 04:46:12;;;;;;;;;;;;;;;17.81;44.22;101571.56;4810977;29;879;-62
2022/05/08 04:48:38;;;;;;;;;;;;;;;17.73;44.11;101572.88;4811846;29;1919;-64
2022/05/08 04:51:04;;;;;;;;;;;;;;;17.74;44.29;101572.63;4811272;29;784;-63
2022/05/08 04:53:30;;;;;;;;;;;;;;;17.76;44.16;101566.84;4811941;29;748;-62
2022/05/08 04:55:56;;;;;;;;;;;;;;;17.73;44.19;101568.22;4810813;29;840;-63
2022/05/08 04:58:22;;;;;;;;;;;;;;;17.74;44.28;101574.53;4810984;29;1474;-65
2022/05/08 05:00:47;;;;;;;;;;;;;;;17.74;44.29;101578.13;4811023;29;917;-65
2022/05/08 05:03:13;;;;;;;;;;;;;;;17.72;44.06;101577.53;4811281;29;780;-64
2022/05/08 05:05:38;;;;;;;;;;;;;;;17.72;43.84;101582.22;4810741;29;840;-64
2022/05/08 05:08:05;;;;;;;;;;;;;;;17.71;44.00;101581.41;4811370;29;817;-64
2022/05/08 05:10:30;;;;;;;;;;;;;;;17.72;43.70;101577.53;4810894;29;1982;-64
2022/05/08 05:12:55;;;;;;;;;;;;;;;17.64;43.92;101578.00;4810719;29;906;-69
2022/05/08 05:15:24;;;;;;;;;;;;;;;17.63;44.04;101587.38;4811327;29;909;-65
2022/05/08 05:17:51;;;;;;;;;;;;;;;17.62;44.07;101578.28;4811029;29;859;-66
2022/05/08 05:20:16;;;;;;;;;;;;;;;17.74;43.73;101580.03;4811033;29;1010;-66
2022/05/08 05:22:42;;;;;;;;;;;;;;;17.64;43.90;101586.28;4811125;29;850;-64
2022/05/08 05:25:07;;;;;;;;;;;;;;;17.68;43.89;101587.41;4811497;29;766;-67
2022/05/08 05:27:33;;;;;;;;;;;;;;;17.64;43.77;101586.28;4810333;29;1176;-65
2022/05/08 05:29:58;;;;;;;;;;;;;;;17.62;43.98;101588.47;4810450;29;1976;-63
2022/05/08 05:32:24;;;;;;;;;;;;;;;17.66;43.80;101592.34;4810914;29;802;-65
2022/05/08 05:34:49;;;;;;;;;;;;;;;17.64;44.01;101590.94;4810291;29;823;-63
2022/05/08 05:37:15;;;;;;;;;;;;;;;17.60;44.02;101590.66;4811180;29;790;-63
2022/05/08 05:39:40;;;;;;;;;;;;;;;17.63;43.95;101584.63;4810489;29;1050;-66
2022/05/08 05:42:06;;;;;;;;;;;;;;;17.61;43.93;101587.66;4810163;29;1034;-65
2022/05/08 05:44:31;;;;;;;;;;;;;;;17.70;44.25;101595.44;4810617;29;904;-65
2022/05/08 05:49:40;;;;;;;;;;;;;;;17.67;44.37;101596.78;4809880;29;1912;-64
2022/05/08 05:52:07;;;;;;;;;;;;;;;17.68;44.28;101595.66;4810969;29;779;-60
2022/05/08 05:54:33;;;;;;;;;;;;;;;17.70;44.34;101596.25;4810202;29;863;-59
2022/05/08 05:56:58;;;;;;;;;;;;;;;17.72;44.10;101596.78;4809894;29;852;-61
2022/05/08 05:59:24;;;;;;;;;;;;;;;17.70;44.30;101590.75;4810365;29;820;-63
2022/05/08 06:01:49;;;;;;;;;;;;;;;17.75;44.52;101596.31;4809482;29;1047;-64
2022/05/08 06:04:15;;;;;;;;;;;;;;;17.77;44.36;101585.03;4810367;29;907;-62
2022/05/08 06:06:40;;;;;;;;;;;;;;;17.81;44.61;101593.56;4810739;29;840;-60
2022/05/08 06:09:07;;;;;;;;;;;;;;;17.83;44.90;101585.91;4809099;29;1904;-59
2022/05/08 06:11:32;;;;;;;;;;;;;;;17.84;44.91;101595.78;4810155;29;916;-65
2022/05/08 06:13:57;;;;;;;;;;;;;;;17.87;44.75;101595.28;4809778;29;952;-65
2022/05/08 06:16:23;;;;;;;;;;;;;;;17.85;45.02;101586.44;4809765;29;885;-57
2022/05/08 06:18:48;;;;;;;;;;;;;;;17.85;45.25;101589.22;4809914;29;776;-57
2022/05/08 06:21:14;;;;;;;;;;;;;;;17.89;44.97;101584.84;4809291;29;1176;-56
2022/05/08 06:23:39;;;;;;;;;;;;;;;17.95;44.75;101592.09;4810031;29;863;-57
2022/05/08 06:26:07;;;;;;;;;;;;;;;17.82;45.04;101598.00;4809485;29;1008;-58
2022/05/08 06:28:34;;;;;;;;;;;;;;;17.82;44.99;101584.25;4809599;29;887;-58
2022/05/08 06:30:59;;;;;;;;;;;;;;;17.76;44.80;101583.38;4809141;29;1240;-63
2022/05/08 06:33:26;;;;;;;;;;;;;;;17.77;44.84;101585.84;4809420;29;823;-62
2022/05/08 06:35:55;;;;;;;;;;;;;;;17.76;44.67;101584.19;4810343;29;808;-62
2022/05/08 06:38:20;;;;;;;;;;;;;;;17.76;44.75;101591.63;4809631;29;810;-63
2022/05/08 06:40:45;;;;;;;;;;;;;;;17.78;44.77;101592.16;4809711;29;874;-63
2022/05/08 06:43:11;;;;;;;;;;;;;;;17.75;44.58;101590.78;4809673;29;868;-63
2022/05/08 06:45:36;;;;;;;;;;;;;;;17.71;44.40;101586.91;4809480;29;892;-64
2022/05/08 06:48:06;;;;;;;;;;;;;;;17.72;44.44;101596.78;4809526;29;820;-63
2022/05/08 06:50:33;;;;;;;;;;;;;;;17.67;44.56;101595.94;4809242;29;1911;-64
2022/05/08 06:52:58;;;;;;;;;;;;;;;17.70;44.34;101592.69;4809697;29;843;-64
2022/05/08 06:55:24;;;;;;;;;;;;;;;17.68;44.21;101590.16;4809274;29;734;-63
2022/05/08 06:57:50;;;;;;;;;;;;;;;17.70;44.28;101593.50;4809817;29;825;-64
2022/05/08 07:03:01;;;;;;;;;;;;;;;17.66;44.30;101594.28;4808616;29;748;-63
2022/05/08 07:05:27;;;;;;;;;;;;;;;17.64;44.21;101591.75;4809225;29;887;-63
2022/05/08 07:07:54;;;;;;;;;;;;;;;17.61;43.97;101592.28;4809483;29;825;-63
2022/05/08 07:10:20;;;;;;;;;;;;;;;17.57;43.96;101591.16;4808528;29;1912;-63
2022/05/08 07:12:45;;;;;;;;;;;;;;;17.61;44.00;101597.78;4809312;29;834;-63
2022/05/08 07:15:11;;;;;;;;;;;;;;;17.60;43.97;101587.91;4808844;29;931;-63
2022/05/08 07:17:36;;;;;;;;;;;;;;;17.57;44.12;101596.66;4808350;29;979;-63
2022/05/08 07:20:03;;;;;;;;;;;;;;;17.61;44.00;101590.41;4808900;29;1038;-63
2022/05/08 07:22:28;;;;;;;;;;;;;;;17.61;43.93;101592.28;4809035;29;979;-63
2022/05/08 07:24:54;;;;;;;;;;;;;;;17.60;44.08;101601.66;4808890;29;899;-63
2022/05/08 07:27:19;;;;;;;;;;;;;;;17.56;43.86;101589.53;4809269;29;1267;-63
2022/05/08 07:29:45;;;;;;;;;;;;;;;17.55;43.97;101599.66;4808519;29;1971;-64
2022/05/08 07:32:10;;;;;;;;;;;;;;;17.61;43.80;101597.78;4808551;29;867;-63
2022/05/08 07:37:22;;;;;;;;;;;;;;;17.60;43.86;101591.47;4809192;29;772;-63
2022/05/08 07:39:48;;;;;;;;;;;;;;;17.60;43.94;101602.47;4808716;29;749;-63
2022/05/08 07:42:13;;;;;;;;;;;;;;;17.57;44.27;101596.66;4808403;29;856;-63
2022/05/08 07:44:39;;;;;;;;;;;;;;;17.61;44.06;101604.16;4808905;29;795;-62
2022/05/08 07:47:04;;;;;;;;;;;;;;;17.56;43.99;101603.28;4809032;29;744;-63
2022/05/08 07:49:29;;;;;;;;;;;;;;;17.60;44.02;101607.16;4808808;29;1911;-63
2022/05/08 07:51:55;;;;;;;;;;;;;;;17.61;44.05;101598.66;4808629;29;820;-63
2022/05/08 07:54:21;;;;;;;;;;;;;;;17.58;44.12;101601.06;4805793;29;1538;-62
2022/05/08 07:56:46;;;;;;;;;;;;;;;17.58;44.35;101601.91;4808809;29;840;-63
2022/05/08 07:59:13;;;;;;;;;;;;;;;17.62;44.37;101602.22;4808447;29;839;-63
2022/05/08 08:01:40;;;;;;;;;;;;;;;17.58;44.20;101603.81;4808672;29;1032;-62
2022/05/08 08:04:07;;;;;;;;;;;;;;;17.59;44.12;101598.06;4809251;29;835;-63
2022/05/08 08:06:32;;;;;;;;;;;;;;;17.61;44.40;101598.66;4808738;29;856;-63
2022/05/08 08:08:58;;;;;;;;;;;;;;;17.57;44.15;101593.91;4809363;29;1977;-61
2022/05/08 08:11:23;;;;;;;;;;;;;;;17.64;44.17;101604.69;4808788;29;1245;-61
2022/05/08 08:13:49;;;;;;;;;;;;;;;17.67;44.22;101601.41;4808885;29;871;-61
2022/05/08 08:16:15;;;;;;;;;;;;;;;17.68;44.29;101603.91;4808424;29;846;-61
2022/05/08 08:18:42;;;;;;;;;;;;;;;17.70;44.33;101607.25;4808934;29;767;-58
2022/05/08 08:21:14;;;;;;;;;;;;;;;17.67;44.40;101599.53;4806254;29;1290;-60
2022/05/08 08:23:40;;;;;;;;;;;;;;;17.63;44.40;101612.13;4807971;29;1205;-58
2022/05/08 08:26:05;;;;;;;;;;;;;;;17.68;44.22;101603.09;4807960;29;1237;-62
2022/05/08 08:28:30;;;;;;;;;;;;;;;17.71;44.34;101613.56;4808394;29;1051;-62
2022/05/08 08:30:56;;;;;;;;;;;;;;;17.64;44.70;101611.03;4808112;29;1928;-59
2022/05/08 08:33:22;;;;;;;;;;;;;;;17.71;44.39;101611.66;4810900;29;751;-59
2022/05/08 08:35:49;;;;;;;;;;;;;;;17.70;44.60;101609.19;4811764;29;937;-60
2022/05/08 08:38:15;;;;;;;;;;;;;;;17.70;44.49;101606.44;4812059;29;869;-59
2022/05/08 08:40:40;;;;;;;;;;;;;;;17.68;44.77;101609.41;4811295;29;859;-61
2022/05/08 08:43:09;;;;;;;;;;;;;;;17.69;44.48;101605.56;4811902;29;748;-59
2022/05/08 08:48:28;;;;;;;;;;;;;;;17.78;44.62;101604.03;4811218;29;804;-62
2022/05/08 08:50:57;;;;;;;;;;;;;;;17.76;44.51;101605.38;4806421;29;1912;-58
2022/05/08 08:53:22;;;;;;;;;;;;;;;17.74;44.69;101602.88;4811696;29;837;-60
2022/05/08 08:55:48;;;;;;;;;;;;;;;17.71;44.52;101606.16;4811145;29;780;-57
2022/05/08 08:58:15;;;;;;;;;;;;;;;17.75;44.36;101607.31;4811248;29;897;-59
2022/05/08 09:00:40;;;;;;;;;;;;;;;17.70;44.67;101614.69;4809826;29;924;-57
2022/05/08 09:03:05;;;;;;;;;;;;;;;17.73;44.47;101617.72;4811447;29;814;-60
2022/05/08 09:05:31;;;;;;;;;;;;;;;17.70;44.69;101600.94;4811568;29;953;-59
2022/05/08 09:07:58;;;;;;;;;;;;;;;17.73;44.84;101611.41;4810100;29;1021;-59
2022/05/08 09:10:24;;;;;;;;;;;;;;;17.75;44.63;101604.56;4810605;29;1907;-59
2022/05/08 09:12:52;;;;;;;;;;;;;;;17.73;44.65;101609.47;4811383;29;818;-60
2022/05/08 09:15:18;;;;;;;;;;;;;;;17.72;44.37;101616.06;4810796;29;909;-60
2022/05/08 09:17:44;;;;;;;;;;;;;;;17.72;44.32;101606.97;4811086;29;966;-60
2022/05/08 09:20:26;;;;;;;;;;;;;;;17.74;44.33;101613.88;4810987;29;1003;-60
2022/05/08 09:23:12;;;;;;;;;;;;;;;17.72;44.27;101615.22;4805492;29;904;-57
2022/05/08 09:25:42;;;;;;;;;;;;;;;17.70;44.46;101618.25;4810879;29;1255;-57
2022/05/08 09:28:08;;;;;;;;;;;;;;;17.73;44.26;101623.22;4811180;29;764;-58
2022/05/08 09:30:34;;;;;;;;;;;;;;;17.73;44.27;101612.22;4809790;29;1986;-58
2022/05/08 09:32:59;;;;;;;;;;;;;;;17.69;44.26;101613.00;4811356;29;846;-55
2022/05/08 09:35:24;;;;;;;;;;;;;;;17.73;44.11;101600.41;4811011;29;793;-58
2022/05/08 09:37:50;;;;;;;;;;;;;;;17.72;44.32;101604.22;4810666;29;1004;-57
2022/05/08 09:40:19;;;;;;;;;;;;;;;17.76;44.54;101606.19;4811103;29;857;-56
2022/05/08 09:42:46;;;;;;;;;;;;;;;17.71;44.75;101608.06;4810185;29;779;-56
2022/05/08 09:45:12;;;;;;;;;;;;;;;17.75;44.49;101601.81;4810005;29;1427;-57
2022/05/08 09:47:42;;;;;;;;;;;;;;;17.81;44.37;101599.06;4810518;29;838;-61
2022/05/08 09:50:08;;;;;;;;;;;;;;;17.79;44.30;101600.19;4810140;29;1907;-60
2022/05/08 09:52:34;;;;;;;;;;;;;;;17.78;44.66;101604.03;4809100;29;864;-60
2022/05/08 09:55:01;;;;;;;;;;;;;;;17.78;44.37;101597.66;4809338;29;754;-60
2022/05/08 09:57:26;;;;;;;;;;;;;;;17.79;44.37;101593.84;4810447;29;766;-61
2022/05/08 09:59:52;;;;;;;;;;;;;;;17.76;44.24;101600.69;4810560;29;893;-58
2022/05/08 10:02:17;;;;;;;;;;;;;;;17.75;44.17;101590.78;4808968;29;1111;-59
2022/05/08 10:04:43;;;;;;;;;;;;;;;17.72;44.34;101594.03;4810156;29;862;-58
2022/05/08 10:07:11;;;;;;;;;;;;;;;17.77;44.16;101591.34;4808784;29;1390;-57
2022/05/08 10:15:18;;;;;;;;;;;;;;;17.68;44.08;101584.66;4808267;29;1117;-58
2022/05/08 10:17:43;;;;;;;;;;;;;;;17.69;44.10;101591.81;4809580;29;1168;-57
2022/05/08 10:20:09;;;;;;;;;;;;;;;17.68;44.17;101587.41;4808294;29;1122;-61
2022/05/08 10:22:50;;;;;;;;;;;;;;;17.70;44.11;101578.91;4809360;29;1141;-58
2022/05/08 10:25:16;;;;;;;;;;;;;;;17.69;44.02;101586.31;4809582;29;1181;-59
2022/05/08 10:28:02;;;;;;;;;;;;;;;17.72;44.04;101585.78;4809384;29;1219;-60
2022/05/08 10:30:27;;;;;;;;;;;;;;;17.72;44.08;101583.03;4809030;29;1907;-57
2022/05/08 10:32:52;;;;;;;;;;;;;;;17.76;43.90;101591.63;4809780;29;835;-59
2022/05/08 10:35:20;;;;;;;;;;;;;;;17.74;44.00;101580.88;4809769;29;716;-58
2022/05/08 10:37:51;;;;;;;;;;;;;;;17.69;43.99;101582.75;4809125;29;944;-59
2022/05/08 10:40:23;;;;;;;;;;;;;;;17.71;44.21;101586.06;4809670;29;1158;-56
2022/05/08 10:42:48;;;;;;;;;;;;;;;17.75;44.11;101585.28;4809612;29;766;-55
2022/05/08 10:45:40;;;;;;;;;;;;;;;17.75;44.30;101585.28;4808136;29;1341;-57
2022/05/08 10:48:15;;;;;;;;;;;;;;;17.75;43.94;101577.03;4804000;29;836;-56
2022/05/08 10:50:44;;;;;;;;;;;;;;;17.72;44.05;101579.47;4809294;29;1982;-57
2022/05/08 10:53:28;;;;;;;;;;;;;;;17.71;43.98;101572.31;4808639;29;887;-57
2022/05/08 10:56:04;;;;;;;;;;;;;;;17.70;44.21;101568.75;4808527;29;1169;-56
2022/05/08 10:58:29;;;;;;;;;;;;;;;17.72;44.28;101569.28;4808500;29;1236;-59
2022/05/08 11:00:56;;;;;;;;;;;;;;;17.73;43.99;101573.72;4808520;29;1275;-60
2022/05/08 11:03:22;;;;;;;;;;;;;;;17.69;44.02;101564.31;4808996;29;1316;-59
2022/05/08 11:05:47;;;;;;;;;;;;;;;17.75;43.88;101560.53;4808894;29;1247;-60
2022/05/08 11:08:19;;;;;;;;;;;;;;;17.77;44.04;101560.28;4808320;29;1316;-59
2022/05/08 11:10:45;;;;;;;;;;;;;;;17.77;43.89;101563.84;4808902;29;1962;-60
2022/05/08 11:13:11;;;;;;;;;;;;;;;17.74;44.11;101553.38;4808509;29;1216;-61
2022/05/08 11:15:37;;;;;;;;;;;;;;;17.74;44.06;101558.03;4808242;29;1244;-60
2022/05/08 11:18:24;;;;;;;;;;;;;;;17.74;43.97;101558.88;4808563;29;1248;-58
2022/05/08 11:21:02;;;;;;;;;;;;;;;17.73;44.03;101565.47;4807142;29;1007;-57
2022/05/08 11:23:32;;;;;;;;;;;;;;;17.74;44.32;101555.28;4806828;29;1327;-58
2022/05/08 11:25:58;;;;;;;;;;;;;;;17.76;44.31;101555.84;4807486;29;1380;-60
2022/05/08 11:28:27;;;;;;;;;;;;;;;17.73;44.35;101557.22;4806638;29;1513;-60
2022/05/08 11:30:53;;;;;;;;;;;;;;;17.75;44.04;101560.53;4807021;29;1981;-61
2022/05/08 11:36:06;;;;;;;;;;;;;;;17.78;44.17;101556.41;4807897;29;1170;-60
2022/05/08 11:38:45;;;;;;;;;;;;;;;17.76;44.21;101551.16;4808430;29;1217;-56
2022/05/08 11:41:17;;;;;;;;;;;;;;;17.77;44.02;101555.59;4809060;29;772;-59
2022/05/08 11:43:44;;;;;;;;;;;;;;;17.73;44.07;101557.22;4807500;29;1185;-58
2022/05/08 11:46:12;;;;;;;;;;;;;;;17.75;44.02;101545.94;4807977;29;1097;-58
2022/05/08 11:48:40;;;;;;;;;;;;;;;17.72;43.98;101558.28;4808463;29;1126;-57
2022/05/08 11:51:09;;;;;;;;;;;;;;;17.74;44.20;101547.88;4808110;29;1908;-57
2022/05/08 11:54:01;;;;;;;;;;;;;;;17.71;44.07;101553.91;4808708;29;1216;-58
2022/05/08 11:56:27;;;;;;;;;;;;;;;17.76;44.18;101547.59;4805337;29;1202;-57
2022/05/08 11:58:53;;;;;;;;;;;;;;;17.75;44.12;101538.53;4808354;29;878;-60
2022/05/08 12:01:29;;;;;;;;;;;;;;;17.78;44.03;101543.50;4808288;29;1032;-60
2022/05/08 12:03:55;;;;;;;;;;;;;;;17.76;44.19;101545.66;4808911;29;791;-63
2022/05/08 12:06:21;;;;;;;;;;;;;;;17.78;43.89;101548.16;4810384;29;856;-61
2022/05/08 12:08:46;;;;;;;;;;;;;;;17.79;44.10;101534.16;4811430;29;1022;-57
2022/05/08 12:11:27;;;;;;;;;;;;;;;17.78;44.10;101535.25;4811738;29;1903;-57
2022/05/08 12:13:59;;;;;;;;;;;;;;;17.77;44.21;101535.50;4811228;29;1249;-56
2022/05/08 12:16:26;;;;;;;;;;;;;;;17.75;44.29;101538.53;4810701;29;1019;-62
2022/05/08 12:19:11;;;;;;;;;;;;;;;17.72;44.08;101532.72;4809067;29;1352;-62
2022/05/08 12:21:37;;;;;;;;;;;;;;;17.73;44.34;101524.19;4809169;29;1205;-57
2022/05/08 12:24:10;;;;;;;;;;;;;;;17.76;44.16;101523.66;4812007;29;1244;-55
2022/05/08 12:26:35;;;;;;;;;;;;;;;17.79;43.81;101528.66;4812074;29;1294;-56
2022/05/08 12:29:01;;;;;;;;;;;;;;;17.75;43.92;101522.03;4811863;29;1984;-56
2022/05/08 12:31:26;;;;;;;;;;;;;;;17.78;43.93;101516.00;4811950;29;996;-59
2022/05/08 12:33:52;;;;;;;;;;;;;;;17.76;44.02;101517.34;4811805;29;801;-59
2022/05/08 12:36:17;;;;;;;;;;;;;;;17.72;44.07;101513.47;4811009;29;1016;-62
2022/05/08 12:38:42;;;;;;;;;;;;;;;17.79;43.79;101514.91;4811730;29;825;-62
2022/05/08 12:41:08;;;;;;;;;;;;;;;17.77;43.91;101508.00;4811874;29;864;-62
2022/05/08 12:43:33;;;;;;;;;;;;;;;17.74;44.00;101497.50;4811424;29;776;-57
2022/05/08 12:45:59;;;;;;;;;;;;;;;17.74;44.18;101505.75;4811787;29;890;-60
2022/05/08 12:48:27;;;;;;;;;;;;;;;17.79;43.95;101501.16;4810405;29;887;-56
2022/05/08 12:50:52;;;;;;;;;;;;;;;17.78;44.01;101495.88;4810926;29;1907;-59
2022/05/08 12:53:18;;;;;;;;;;;;;;;17.83;44.18;101511.63;4811637;29;797;-60
2022/05/08 12:55:43;;;;;;;;;;;;;;;17.89;43.92;101503.16;4811080;29;868;-56
2022/05/08 13:00:53;;;;;;;;;;;;;;;17.89;44.03;101494.91;4810985;29;849;-61
2022/05/08 13:03:18;;;;;;;;;;;;;;;17.95;44.14;101490.28;4811244;29;796;-56
2022/05/08 13:05:44;;;;;;;;;;;;;;;17.88;44.29;101493.22;4811120;29;1484;-58
2022/05/08 13:08:09;;;;;;;;;;;;;;;17.85;44.20;101493.75;4811760;29;798;-58
2022/05/08 13:10:35;;;;;;;;;;;;;;;17.84;44.20;101483.00;4811286;29;1916;-61
2022/05/08 13:13:01;;;;;;;;;;;;;;;17.84;44.20;101483.00;4811167;29;824;-59
2022/05/08 13:15:26;;;;;;;;;;;;;;;17.83;44.09;101490.44;4810913;29;864;-60
2022/05/08 13:17:52;;;;;;;;;;;;;;;17.83;44.01;101478.59;4811005;29;773;-59
2022/05/08 13:20:17;;;;;;;;;;;;;;;17.78;44.13;101477.47;4810769;29;1041;-59
2022/05/08 13:22:43;;;;;;;;;;;;;;;17.84;44.05;101470.09;4811101;29;840;-58
2022/05/08 13:25:09;;;;;;;;;;;;;;;17.85;44.06;101468.16;4809578;29;1085;-62
2022/05/08 13:27:35;;;;;;;;;;;;;;;17.86;44.36;101475.31;4810789;29;1121;-57